sensor_id;sensor_type;location;lat;lon;timestamp;pressure;altitude;pressure_sealevel;temperature;humidity
55540;BME280;41384;51.418;7.286;2022-09-24T00:00:18;99609.47;;;15.50;68.64
55540;BME280;41384;51.418;7.286;2022-09-24T00:02:43;99613.41;;;15.47;67.95
55540;BME280;41384;51.418;7.286;2022-09-24T00:05:09;99606.63;;;15.39;68.60
55540;BME280;41384;51.418;7.286;2022-09-24T00:07:34;99607.09;;;15.53;68.71
55540;BME280;41384;51.418;7.286;2022-09-24T00:09:59;99607.19;;;15.41;68.90
55540;BME280;41384;51.418;7.286;2022-09-24T00:12:26;99607.19;;;15.41;68.77
55540;BME280;41384;51.418;7.286;2022-09-24T00:14:52;99602.13;;;15.57;68.22
55540;BME280;41384;51.418;7.286;2022-09-24T00:17:18;99604.69;;;15.17;70.00
55540;BME280;41384;51.418;7.286;2022-09-24T00:19:43;99606.13;;;15.42;69.01
55540;BME280;41384;51.418;7.286;2022-09-24T00:22:08;99609.34;;;15.44;69.59
55540;BME280;41384;51.418;7.286;2022-09-24T00:24:34;99612.44;;;15.36;69.65
55540;BME280;41384;51.418;7.286;2022-09-24T00:27:17;99609.84;;;15.41;69.92
55540;BME280;41384;51.418;7.286;2022-09-24T00:29:43;99598.56;;;15.51;69.39
55540;BME280;41384;51.418;7.286;2022-09-24T00:32:08;99596.22;;;15.55;69.61
55540;BME280;41384;51.418;7.286;2022-09-24T00:34:34;99602.91;;;15.57;70.13
55540;BME280;41384;51.418;7.286;2022-09-24T00:36:59;99598.88;;;15.55;69.62
55540;BME280;41384;51.418;7.286;2022-09-24T00:39:25;99604.28;;;15.43;70.38
55540;BME280;41384;51.418;7.286;2022-09-24T00:41:50;99610.31;;;15.38;71.64
55540;BME280;41384;51.418;7.286;2022-09-24T00:47:36;99603.00;;;15.45;72.27
55540;BME280;41384;51.418;7.286;2022-09-24T00:50:21;99598.56;;;15.34;73.89
55540;BME280;41384;51.418;7.286;2022-09-24T00:52:55;99597.84;;;15.22;75.13
55540;BME280;41384;51.418;7.286;2022-09-24T00:55:23;99599.38;;;15.17;75.39
55540;BME280;41384;51.418;7.286;2022-09-24T00:57:52;99593.91;;;15.24;74.90
55540;BME280;41384;51.418;7.286;2022-09-24T01:00:20;99591.56;;;15.28;74.42
55540;BME280;41384;51.418;7.286;2022-09-24T01:02:48;99591.97;;;15.37;74.44
55540;BME280;41384;51.418;7.286;2022-09-24T01:05:15;99586.81;;;15.47;73.45
55540;BME280;41384;51.418;7.286;2022-09-24T01:07:40;99589.69;;;15.45;73.65
55540;BME280;41384;51.418;7.286;2022-09-24T01:10:06;99583.25;;;15.41;73.93
55540;BME280;41384;51.418;7.286;2022-09-24T01:12:43;99583.91;;;15.49;73.69
55540;BME280;41384;51.418;7.286;2022-09-24T01:15:22;99592.13;;;15.47;74.00
55540;BME280;41384;51.418;7.286;2022-09-24T01:18:13;99591.16;;;15.36;74.64
55540;BME280;41384;51.418;7.286;2022-09-24T01:21:02;99583.09;;;15.48;74.68
55540;BME280;41384;51.418;7.286;2022-09-24T01:24:13;99591.34;;;15.46;75.00
55540;BME280;41384;51.418;7.286;2022-09-24T01:27:02;99593.75;;;15.31;76.83
55540;BME280;41384;51.418;7.286;2022-09-24T01:35:08;99591.47;;;15.40;77.45
55540;BME280;41384;51.418;7.286;2022-09-24T01:37:39;99589.94;;;15.27;78.22
55540;BME280;41384;51.418;7.286;2022-09-24T01:40:06;99586.47;;;15.43;77.66
55540;BME280;41384;51.418;7.286;2022-09-24T01:42:34;99582.63;;;15.34;77.98
55540;BME280;41384;51.418;7.286;2022-09-24T01:45:03;99577.06;;;15.36;78.33
55540;BME280;41384;51.418;7.286;2022-09-24T01:47:31;99581.41;;;15.42;77.77
55540;BME280;41384;51.418;7.286;2022-09-24T01:49:57;99573.34;;;15.37;78.52
55540;BME280;41384;51.418;7.286;2022-09-24T01:52:28;99559.41;;;15.46;78.20
55540;BME280;41384;51.418;7.286;2022-09-24T01:54:55;99567.56;;;15.40;78.05
55540;BME280;41384;51.418;7.286;2022-09-24T01:57:28;99561.25;;;15.46;78.24
55540;BME280;41384;51.418;7.286;2022-09-24T02:00:06;99560.44;;;15.45;78.72
55540;BME280;41384;51.418;7.286;2022-09-24T02:02:44;99561.75;;;15.43;78.48
55540;BME280;41384;51.418;7.286;2022-09-24T02:05:20;99560.38;;;15.40;79.41
55540;BME280;41384;51.418;7.286;2022-09-24T02:08:11;99550.28;;;15.42;79.27
55540;BME280;41384;51.418;7.286;2022-09-24T02:10:44;99555.31;;;15.22;81.32
55540;BME280;41384;51.418;7.286;2022-09-24T02:13:11;99563.97;;;15.12;81.83
55540;BME280;41384;51.418;7.286;2022-09-24T02:15:41;99558.16;;;15.15;82.61
55540;BME280;41384;51.418;7.286;2022-09-24T02:18:12;99554.13;;;15.12;83.33
55540;BME280;41384;51.418;7.286;2022-09-24T02:20:41;99547.81;;;15.18;82.49
55540;BME280;41384;51.418;7.286;2022-09-24T02:23:08;99546.81;;;15.02;83.72
55540;BME280;41384;51.418;7.286;2022-09-24T02:25:47;99546.00;;;15.02;83.68
55540;BME280;41384;51.418;7.286;2022-09-24T02:28:16;99546.97;;;14.96;84.02
55540;BME280;41384;51.418;7.286;2022-09-24T02:30:47;99546.97;;;14.96;84.14
55540;BME280;41384;51.418;7.286;2022-09-24T02:33:14;99539.44;;;14.76;85.65
55540;BME280;41384;51.418;7.286;2022-09-24T02:35:59;99542.53;;;14.84;85.91
55540;BME280;41384;51.418;7.286;2022-09-24T02:38:24;99538.00;;;14.85;85.42
55540;BME280;41384;51.418;7.286;2022-09-24T02:40:49;99540.91;;;14.83;85.51
55540;BME280;41384;51.418;7.286;2022-09-24T02:43:15;99536.78;;;14.76;86.62
55540;BME280;41384;51.418;7.286;2022-09-24T02:45:40;99533.91;;;14.77;86.69
55540;BME280;41384;51.418;7.286;2022-09-24T02:48:06;99534.69;;;14.78;86.73
55540;BME280;41384;51.418;7.286;2022-09-24T02:50:32;99534.78;;;14.83;86.73
55540;BME280;41384;51.418;7.286;2022-09-24T02:52:57;99533.50;;;14.85;86.65
55540;BME280;41384;51.418;7.286;2022-09-24T02:55:22;99538.75;;;14.80;87.00
55540;BME280;41384;51.418;7.286;2022-09-24T02:57:48;99535.34;;;14.85;86.31
55540;BME280;41384;51.418;7.286;2022-09-24T03:00:13;99537.91;;;14.63;87.73
55540;BME280;41384;51.418;7.286;2022-09-24T03:02:39;99538.00;;;14.85;87.07
55540;BME280;41384;51.418;7.286;2022-09-24T03:05:04;99530.38;;;14.88;86.16
55540;BME280;41384;51.418;7.286;2022-09-24T03:07:30;99529.56;;;14.88;86.68
55540;BME280;41384;51.418;7.286;2022-09-24T03:09:55;99535.28;;;14.97;85.96
55540;BME280;41384;51.418;7.286;2022-09-24T03:12:20;99524.00;;;14.90;86.45
55540;BME280;41384;51.418;7.286;2022-09-24T03:14:46;99539.00;;;14.96;85.51
55540;BME280;41384;51.418;7.286;2022-09-24T03:17:11;99539.22;;;15.11;83.96
55540;BME280;41384;51.418;7.286;2022-09-24T03:19:36;99527.47;;;15.07;84.07
55540;BME280;41384;51.418;7.286;2022-09-24T03:22:02;99528.03;;;15.09;83.95
55540;BME280;41384;51.418;7.286;2022-09-24T03:24:27;99521.25;;;15.18;83.44
55540;BME280;41384;51.418;7.286;2022-09-24T03:26:52;99517.94;;;15.11;84.85
55540;BME280;41384;51.418;7.286;2022-09-24T03:29:18;99517.72;;;15.13;85.31
55540;BME280;41384;51.418;7.286;2022-09-24T03:32:03;99511.09;;;14.98;86.77
55540;BME280;41384;51.418;7.286;2022-09-24T03:34:28;99513.28;;;15.01;86.93
55540;BME280;41384;51.418;7.286;2022-09-24T03:36:54;99508.72;;;14.97;87.46
55540;BME280;41384;51.418;7.286;2022-09-24T03:39:19;99507.16;;;15.01;87.09
55540;BME280;41384;51.418;7.286;2022-09-24T03:41:44;99508.94;;;14.95;88.35
55540;BME280;41384;51.418;7.286;2022-09-24T03:44:09;99504.03;;;15.04;87.73
55540;BME280;41384;51.418;7.286;2022-09-24T03:46:35;99494.59;;;14.96;87.97
55540;BME280;41384;51.418;7.286;2022-09-24T03:49:00;99494.44;;;14.86;88.87
55540;BME280;41384;51.418;7.286;2022-09-24T03:51:25;99501.72;;;14.91;88.64
55540;BME280;41384;51.418;7.286;2022-09-24T03:53:51;99502.25;;;14.93;87.70
55540;BME280;41384;51.418;7.286;2022-09-24T03:56:16;99504.44;;;14.96;87.81
55540;BME280;41384;51.418;7.286;2022-09-24T03:58:42;99492.13;;;15.07;86.41
55540;BME280;41384;51.418;7.286;2022-09-24T04:01:12;99489.47;;;15.07;85.79
55540;BME280;41384;51.418;7.286;2022-09-24T04:03:39;99491.06;;;15.08;86.11
55540;BME280;41384;51.418;7.286;2022-09-24T04:06:05;99495.16;;;15.15;85.41
55540;BME280;41384;51.418;7.286;2022-09-24T04:08:30;99486.53;;;15.08;85.91
55540;BME280;41384;51.418;7.286;2022-09-24T04:10:56;99481.41;;;14.84;86.51
55540;BME280;41384;51.418;7.286;2022-09-24T04:13:22;99480.78;;;14.77;87.61
55540;BME280;41384;51.418;7.286;2022-09-24T04:15:48;99482.13;;;14.97;86.24
55540;BME280;41384;51.418;7.286;2022-09-24T04:18:14;99479.00;;;15.00;85.62
55540;BME280;41384;51.418;7.286;2022-09-24T04:20:40;99475.38;;;14.89;85.69
55540;BME280;41384;51.418;7.286;2022-09-24T04:23:06;99471.81;;;15.00;84.32
55540;BME280;41384;51.418;7.286;2022-09-24T04:25:32;99474.56;;;15.06;84.26
55540;BME280;41384;51.418;7.286;2022-09-24T04:28:00;99470.28;;;15.05;83.79
55540;BME280;41384;51.418;7.286;2022-09-24T04:30:27;99464.56;;;14.96;84.34
55540;BME280;41384;51.418;7.286;2022-09-24T04:32:53;99472.56;;;14.96;83.65
55540;BME280;41384;51.418;7.286;2022-09-24T04:35:21;99469.81;;;14.91;84.94
55540;BME280;41384;51.418;7.286;2022-09-24T04:37:47;99469.66;;;14.80;85.32
55540;BME280;41384;51.418;7.286;2022-09-24T04:40:13;99482.38;;;14.78;86.08
55540;BME280;41384;51.418;7.286;2022-09-24T04:42:39;99483.63;;;14.41;88.20
55540;BME280;41384;51.418;7.286;2022-09-24T04:45:08;99472.16;;;14.70;87.15
55540;BME280;41384;51.418;7.286;2022-09-24T04:47:35;99481.06;;;14.47;88.76
55540;BME280;41384;51.418;7.286;2022-09-24T04:50:00;99481.44;;;14.55;88.32
55540;BME280;41384;51.418;7.286;2022-09-24T04:52:29;99474.94;;;14.63;87.97
55540;BME280;41384;51.418;7.286;2022-09-24T04:54:58;99480.31;;;14.51;88.49
55540;BME280;41384;51.418;7.286;2022-09-24T04:57:24;99478.91;;;14.61;87.27
55540;BME280;41384;51.418;7.286;2022-09-24T04:59:49;99481.94;;;14.69;86.57
55540;BME280;41384;51.418;7.286;2022-09-24T05:02:14;99472.16;;;14.70;86.77
55540;BME280;41384;51.418;7.286;2022-09-24T05:04:41;99468.28;;;14.78;85.49
55540;BME280;41384;51.418;7.286;2022-09-24T05:07:08;99474.91;;;14.75;85.92
55540;BME280;41384;51.418;7.286;2022-09-24T05:09:34;99473.72;;;14.37;87.92
55540;BME280;41384;51.418;7.286;2022-09-24T05:12:00;99476.44;;;14.42;88.81
55540;BME280;41384;51.418;7.286;2022-09-24T05:14:26;99470.19;;;14.48;88.92
55540;BME280;41384;51.418;7.286;2022-09-24T05:16:51;99463.19;;;14.42;89.41
55540;BME280;41384;51.418;7.286;2022-09-24T05:19:17;99460.69;;;14.35;89.15
55540;BME280;41384;51.418;7.286;2022-09-24T05:21:42;99468.50;;;14.42;88.21
55540;BME280;41384;51.418;7.286;2022-09-24T05:24:07;99462.22;;;14.48;87.46
55540;BME280;41384;51.418;7.286;2022-09-24T05:26:33;99462.63;;;14.57;86.37
55540;BME280;41384;51.418;7.286;2022-09-24T05:29:17;99467.56;;;14.82;84.52
55540;BME280;41384;51.418;7.286;2022-09-24T05:31:43;99468.44;;;14.88;84.48
55540;BME280;41384;51.418;7.286;2022-09-24T05:34:08;99463.94;;;14.71;85.53
55540;BME280;41384;51.418;7.286;2022-09-24T05:36:33;99461.09;;;14.61;86.75
55540;BME280;41384;51.418;7.286;2022-09-24T05:38:59;99465.84;;;14.42;88.60
55540;BME280;41384;51.418;7.286;2022-09-24T05:41:25;99474.69;;;14.48;88.37
55540;BME280;41384;51.418;7.286;2022-09-24T05:43:50;99471.09;;;14.54;87.66
55540;BME280;41384;51.418;7.286;2022-09-24T05:46:15;99473.41;;;14.50;88.43
55540;BME280;41384;51.418;7.286;2022-09-24T05:48:40;99475.00;;;14.51;88.15
55540;BME280;41384;51.418;7.286;2022-09-24T05:51:06;99463.81;;;14.49;88.18
55540;BME280;41384;51.418;7.286;2022-09-24T05:53:31;99471.06;;;14.37;88.27
55540;BME280;41384;51.418;7.286;2022-09-24T05:55:58;99469.47;;;14.53;87.12
55540;BME280;41384;51.418;7.286;2022-09-24T05:58:23;99471.50;;;14.63;86.78
55540;BME280;41384;51.418;7.286;2022-09-24T06:00:49;99469.88;;;14.62;87.58
55540;BME280;41384;51.418;7.286;2022-09-24T06:03:16;99476.69;;;14.57;88.57
55540;BME280;41384;51.418;7.286;2022-09-24T06:05:46;99484.78;;;14.63;88.53
55540;BME280;41384;51.418;7.286;2022-09-24T06:08:13;99478.16;;;14.65;88.57
55540;BME280;41384;51.418;7.286;2022-09-24T06:10:40;99474.41;;;14.78;87.11
55540;BME280;41384;51.418;7.286;2022-09-24T06:13:06;99481.34;;;14.79;87.55
55540;BME280;41384;51.418;7.286;2022-09-24T06:15:31;99481.00;;;14.76;86.53
55540;BME280;41384;51.418;7.286;2022-09-24T06:17:57;99476.09;;;14.84;85.51
55540;BME280;41384;51.418;7.286;2022-09-24T06:20:22;99484.63;;;14.86;84.64
55540;BME280;41384;51.418;7.286;2022-09-24T06:22:47;99482.44;;;15.00;83.36
55540;BME280;41384;51.418;7.286;2022-09-24T06:25:13;99483.41;;;14.94;83.83
55540;BME280;41384;51.418;7.286;2022-09-24T06:27:38;99476.19;;;14.90;84.59
55540;BME280;41384;51.418;7.286;2022-09-24T06:30:04;99483.75;;;14.98;84.84
55540;BME280;41384;51.418;7.286;2022-09-24T06:32:30;99487.19;;;14.98;85.26
55540;BME280;41384;51.418;7.286;2022-09-24T06:34:55;99490.03;;;14.92;86.29
55540;BME280;41384;51.418;7.286;2022-09-24T06:37:20;99491.06;;;14.91;85.49
55540;BME280;41384;51.418;7.286;2022-09-24T06:39:46;99491.63;;;14.93;86.05
55540;BME280;41384;51.418;7.286;2022-09-24T06:42:12;99496.31;;;15.02;85.69
55540;BME280;41384;51.418;7.286;2022-09-24T06:44:37;99501.38;;;15.04;85.81
55540;BME280;41384;51.418;7.286;2022-09-24T06:47:02;99502.84;;;14.95;86.10
55540;BME280;41384;51.418;7.286;2022-09-24T06:49:27;99506.19;;;15.07;86.00
55540;BME280;41384;51.418;7.286;2022-09-24T06:51:53;99502.56;;;15.13;84.61
55540;BME280;41384;51.418;7.286;2022-09-24T06:54:19;99512.78;;;15.22;84.12
55540;BME280;41384;51.418;7.286;2022-09-24T06:56:45;99510.44;;;15.25;83.09
55540;BME280;41384;51.418;7.286;2022-09-24T06:59:10;99504.38;;;15.30;82.83
55540;BME280;41384;51.418;7.286;2022-09-24T07:01:36;99504.94;;;15.32;83.02
55540;BME280;41384;51.418;7.286;2022-09-24T07:04:01;99504.78;;;15.39;81.19
55540;BME280;41384;51.418;7.286;2022-09-24T07:06:26;99509.91;;;15.45;81.03
55540;BME280;41384;51.418;7.286;2022-09-24T07:09:12;99511.22;;;15.43;80.91
55540;BME280;41384;51.418;7.286;2022-09-24T07:11:37;99515.97;;;15.41;81.46
55540;BME280;41384;51.418;7.286;2022-09-24T07:14:02;99517.09;;;15.45;81.62
55540;BME280;41384;51.418;7.286;2022-09-24T07:16:28;99510.22;;;15.49;81.71
55540;BME280;41384;51.418;7.286;2022-09-24T07:18:53;99510.22;;;15.49;81.27
55540;BME280;41384;51.418;7.286;2022-09-24T07:21:18;99521.19;;;15.53;81.66
55540;BME280;41384;51.418;7.286;2022-09-24T07:23:43;99525.41;;;15.49;81.76
55540;BME280;41384;51.418;7.286;2022-09-24T07:26:09;99521.06;;;15.65;80.40
55540;BME280;41384;51.418;7.286;2022-09-24T07:28:34;99523.06;;;15.74;79.51
55540;BME280;41384;51.418;7.286;2022-09-24T07:30:59;99520.13;;;15.76;79.61
55540;BME280;41384;51.418;7.286;2022-09-24T07:33:25;99518.09;;;15.83;78.87
55540;BME280;41384;51.418;7.286;2022-09-24T07:35:50;99530.03;;;15.81;79.50
55540;BME280;41384;51.418;7.286;2022-09-24T07:38:16;99526.75;;;15.90;79.18
55540;BME280;41384;51.418;7.286;2022-09-24T07:40:41;99530.03;;;15.81;80.24
55540;BME280;41384;51.418;7.286;2022-09-24T07:43:08;99530.00;;;15.98;79.34
55540;BME280;41384;51.418;7.286;2022-09-24T07:45:37;99532.47;;;16.04;79.12
55540;BME280;41384;51.418;7.286;2022-09-24T07:48:04;99535.63;;;16.01;78.71
55540;BME280;41384;51.418;7.286;2022-09-24T07:50:32;99535.19;;;16.10;79.00
55540;BME280;41384;51.418;7.286;2022-09-24T07:52:58;99537.91;;;16.15;78.82
55540;BME280;41384;51.418;7.286;2022-09-24T07:55:25;99539.81;;;16.19;79.35
55540;BME280;41384;51.418;7.286;2022-09-24T07:57:52;99534.13;;;16.11;78.29
55540;BME280;41384;51.418;7.286;2022-09-24T08:00:19;99537.41;;;16.18;78.81
55540;BME280;41384;51.418;7.286;2022-09-24T08:02:45;99537.16;;;16.19;78.17
55540;BME280;41384;51.418;7.286;2022-09-24T08:05:12;99542.19;;;16.16;78.68
55540;BME280;41384;51.418;7.286;2022-09-24T08:07:40;99534.78;;;16.23;78.22
55540;BME280;41384;51.418;7.286;2022-09-24T08:10:05;99541.38;;;16.15;78.50
55540;BME280;41384;51.418;7.286;2022-09-24T08:12:31;99540.88;;;16.18;78.49
55540;BME280;41384;51.418;7.286;2022-09-24T08:14:56;99546.22;;;15.96;82.10
55540;BME280;41384;51.418;7.286;2022-09-24T08:17:21;99540.94;;;16.01;82.64
55540;BME280;41384;51.418;7.286;2022-09-24T08:19:47;99542.38;;;16.09;82.05
55540;BME280;41384;51.418;7.286;2022-09-24T08:22:12;99544.34;;;16.19;82.40
55540;BME280;41384;51.418;7.286;2022-09-24T08:24:39;99534.50;;;16.19;83.11
55540;BME280;41384;51.418;7.286;2022-09-24T08:27:04;99542.00;;;16.00;83.61
55540;BME280;41384;51.418;7.286;2022-09-24T08:29:29;99544.63;;;15.95;83.95
55540;BME280;41384;51.418;7.286;2022-09-24T08:31:55;99542.38;;;16.09;83.69
55540;BME280;41384;51.418;7.286;2022-09-24T08:34:20;99552.41;;;16.02;85.31
55540;BME280;41384;51.418;7.286;2022-09-24T08:36:45;99555.59;;;15.82;85.29
55540;BME280;41384;51.418;7.286;2022-09-24T08:39:10;99550.56;;;16.02;83.81
55540;BME280;41384;51.418;7.286;2022-09-24T08:44:24;99543.44;;;16.08;82.82
55540;BME280;41384;51.418;7.286;2022-09-24T08:47:14;99532.59;;;16.42;81.13
55540;BME280;41384;51.418;7.286;2022-09-24T08:49:54;99538.38;;;16.34;82.05
55540;BME280;41384;51.418;7.286;2022-09-24T08:52:27;99538.06;;;16.03;83.64
55540;BME280;41384;51.418;7.286;2022-09-24T08:54:55;99537.72;;;16.49;80.61
55540;BME280;41384;51.418;7.286;2022-09-24T08:57:22;99535.53;;;16.41;81.79
55540;BME280;41384;51.418;7.286;2022-09-24T08:59:50;99547.84;;;16.47;80.69
55540;BME280;41384;51.418;7.286;2022-09-24T09:02:27;99538.31;;;16.56;80.27
55540;BME280;41384;51.418;7.286;2022-09-24T09:05:24;99539.44;;;16.60;79.22
55540;BME280;41384;51.418;7.286;2022-09-24T09:07:59;99556.09;;;16.51;80.80
55540;BME280;41384;51.418;7.286;2022-09-24T09:10:30;99547.88;;;16.52;81.18
55540;BME280;41384;51.418;7.286;2022-09-24T09:13:09;99553.16;;;15.97;83.67
55540;BME280;41384;51.418;7.286;2022-09-24T09:15:41;99559.53;;;16.18;82.52
55540;BME280;41384;51.418;7.286;2022-09-24T09:20:42;99565.50;;;16.31;80.65
55540;BME280;41384;51.418;7.286;2022-09-24T09:23:19;99559.63;;;16.29;81.30
55540;BME280;41384;51.418;7.286;2022-09-24T09:25:49;99561.91;;;16.42;80.96
55540;BME280;41384;51.418;7.286;2022-09-24T09:28:16;99562.63;;;16.10;82.91
55540;BME280;41384;51.418;7.286;2022-09-24T09:31:02;99570.66;;;16.38;80.48
55540;BME280;41384;51.418;7.286;2022-09-24T09:36:25;99562.09;;;16.63;78.28
55540;BME280;41384;51.418;7.286;2022-09-24T09:42:05;99561.88;;;16.15;80.31
55540;BME280;41384;51.418;7.286;2022-09-24T09:44:41;99557.16;;;16.22;79.63
55540;BME280;41384;51.418;7.286;2022-09-24T09:47:28;99556.38;;;16.49;79.31
55540;BME280;41384;51.418;7.286;2022-09-24T09:50:02;99555.91;;;16.57;78.20
55540;BME280;41384;51.418;7.286;2022-09-24T09:52:33;99553.25;;;16.57;78.72
55540;BME280;41384;51.418;7.286;2022-09-24T09:55:01;99548.53;;;16.37;79.76
55540;BME280;41384;51.418;7.286;2022-09-24T09:57:30;99558.69;;;16.40;78.76
55540;BME280;41384;51.418;7.286;2022-09-24T09:59:56;99551.00;;;16.44;78.74
55540;BME280;41384;51.418;7.286;2022-09-24T10:02:32;99553.31;;;16.13;80.18
55540;BME280;41384;51.418;7.286;2022-09-24T10:05:04;99551.13;;;16.32;79.66
55540;BME280;41384;51.418;7.286;2022-09-24T10:07:29;99554.72;;;16.43;79.11
55540;BME280;41384;51.418;7.286;2022-09-24T10:10:22;99552.38;;;16.52;78.06
55540;BME280;41384;51.418;7.286;2022-09-24T10:12:52;99554.03;;;16.58;78.30
55540;BME280;41384;51.418;7.286;2022-09-24T10:15:20;99550.84;;;16.88;76.85
55540;BME280;41384;51.418;7.286;2022-09-24T10:17:51;99550.00;;;16.83;77.87
55540;BME280;41384;51.418;7.286;2022-09-24T10:20:22;99554.94;;;16.69;77.92
55540;BME280;41384;51.418;7.286;2022-09-24T10:22:53;99547.78;;;16.42;79.17
55540;BME280;41384;51.418;7.286;2022-09-24T10:25:22;99543.16;;;16.59;78.08
55540;BME280;41384;51.418;7.286;2022-09-24T10:27:59;99549.19;;;16.49;78.20
55540;BME280;41384;51.418;7.286;2022-09-24T10:31:05;99547.28;;;16.45;78.08
55540;BME280;41384;51.418;7.286;2022-09-24T10:33:38;99556.09;;;16.78;76.76
55540;BME280;41384;51.418;7.286;2022-09-24T10:36:07;99548.59;;;16.75;77.20
55540;BME280;41384;51.418;7.286;2022-09-24T10:38:37;99550.72;;;16.73;76.73
55540;BME280;41384;51.418;7.286;2022-09-24T10:41:13;99555.53;;;16.76;76.88
55540;BME280;41384;51.418;7.286;2022-09-24T10:43:38;99551.00;;;16.76;77.00
55540;BME280;41384;51.418;7.286;2022-09-24T10:46:16;99550.31;;;16.59;76.33
55540;BME280;41384;51.418;7.286;2022-09-24T10:49:00;99551.34;;;16.85;75.93
55540;BME280;41384;51.418;7.286;2022-09-24T10:54:05;99568.25;;;16.96;74.68
55540;BME280;41384;51.418;7.286;2022-09-24T10:56:37;99552.41;;;16.84;74.73
55540;BME280;41384;51.418;7.286;2022-09-24T11:04:55;99557.53;;;16.91;74.14
55540;BME280;41384;51.418;7.286;2022-09-24T11:18:54;99547.94;;;16.90;71.34
55540;BME280;41384;51.418;7.286;2022-09-24T11:32:23;99554.16;;;17.01;70.35
55540;BME280;41384;51.418;7.286;2022-09-24T11:38:26;99552.91;;;17.09;69.73
55540;BME280;41384;51.418;7.286;2022-09-24T11:46:22;99555.50;;;16.71;70.05
55540;BME280;41384;51.418;7.286;2022-09-24T11:49:03;99549.63;;;16.69;70.04
55540;BME280;41384;51.418;7.286;2022-09-24T11:51:45;99544.88;;;17.03;69.15
55540;BME280;41384;51.418;7.286;2022-09-24T11:54:20;99547.00;;;16.74;69.06
55540;BME280;41384;51.418;7.286;2022-09-24T11:56:52;99545.53;;;16.61;70.23
55540;BME280;41384;51.418;7.286;2022-09-24T11:59:33;99543.22;;;16.70;70.33
55540;BME280;41384;51.418;7.286;2022-09-24T12:02:12;99545.22;;;16.85;70.43
55540;BME280;41384;51.418;7.286;2022-09-24T12:04:48;99537.91;;;16.97;69.12
55540;BME280;41384;51.418;7.286;2022-09-24T12:07:22;99537.69;;;17.09;69.01
55540;BME280;41384;51.418;7.286;2022-09-24T12:13:03;99541.41;;;17.08;69.80
55540;BME280;41384;51.418;7.286;2022-09-24T12:15:43;99543.31;;;17.13;70.20
55540;BME280;41384;51.418;7.286;2022-09-24T12:18:30;99540.63;;;17.08;70.81
55540;BME280;41384;51.418;7.286;2022-09-24T12:20:59;99539.53;;;17.03;70.47
55540;BME280;41384;51.418;7.286;2022-09-24T12:23:33;99541.81;;;16.95;70.88
55540;BME280;41384;51.418;7.286;2022-09-24T12:26:03;99543.63;;;16.84;71.44
55540;BME280;41384;51.418;7.286;2022-09-24T12:28:37;99545.47;;;16.83;70.92
55540;BME280;41384;51.418;7.286;2022-09-24T12:34:41;99543.16;;;17.25;70.60
55540;BME280;41384;51.418;7.286;2022-09-24T12:37:17;99537.69;;;16.76;72.02
55540;BME280;41384;51.418;7.286;2022-09-24T12:39:51;99543.41;;;16.90;72.47
55540;BME280;41384;51.418;7.286;2022-09-24T12:42:19;99535.97;;;17.30;70.41
55540;BME280;41384;51.418;7.286;2022-09-24T12:44:54;99537.00;;;17.24;70.88
55540;BME280;41384;51.418;7.286;2022-09-24T12:47:27;99533.44;;;17.13;71.20
55540;BME280;41384;51.418;7.286;2022-09-24T12:49:58;99533.09;;;16.99;72.29
55540;BME280;41384;51.418;7.286;2022-09-24T12:52:38;99530.66;;;17.35;71.18
55540;BME280;41384;51.418;7.286;2022-09-24T12:55:14;99526.09;;;17.26;72.19
55540;BME280;41384;51.418;7.286;2022-09-24T12:57:58;99532.28;;;17.42;72.12
55540;BME280;41384;51.418;7.286;2022-09-24T13:02:56;99530.47;;;17.04;73.06
55540;BME280;41384;51.418;7.286;2022-09-24T13:11:00;99528.97;;;17.19;73.00
55540;BME280;41384;51.418;7.286;2022-09-24T13:13:30;99525.81;;;17.27;72.84
55540;BME280;41384;51.418;7.286;2022-09-24T13:16:04;99526.44;;;17.02;73.38
55540;BME280;41384;51.418;7.286;2022-09-24T13:18:32;99527.22;;;16.65;75.67
55540;BME280;41384;51.418;7.286;2022-09-24T13:21:02;99531.59;;;16.81;75.18
55540;BME280;41384;51.418;7.286;2022-09-24T13:28:30;99524.00;;;16.62;75.86
55540;BME280;41384;51.418;7.286;2022-09-24T13:31:17;99531.00;;;17.01;73.82
55540;BME280;41384;51.418;7.286;2022-09-24T13:33:48;99525.81;;;16.29;76.82
55540;BME280;41384;51.418;7.286;2022-09-24T13:44:52;99524.78;;;17.33;73.58
55540;BME280;41384;51.418;7.286;2022-09-24T13:48:39;99527.28;;;17.08;74.04
55540;BME280;41384;51.418;7.286;2022-09-24T13:50:37;99533.91;;;17.00;74.13
55540;BME280;41384;51.418;7.286;2022-09-24T13:53:27;99524.88;;;17.06;73.85
55540;BME280;41384;51.418;7.286;2022-09-24T13:55:58;99531.84;;;17.12;73.96
55540;BME280;41384;51.418;7.286;2022-09-24T13:58:32;99525.09;;;17.37;73.07
55540;BME280;41384;51.418;7.286;2022-09-24T14:01:01;99529.94;;;17.02;74.15
55540;BME280;41384;51.418;7.286;2022-09-24T14:03:32;99525.34;;;16.98;74.37
55540;BME280;41384;51.418;7.286;2022-09-24T14:05:59;99532.91;;;17.11;74.33
55540;BME280;41384;51.418;7.286;2022-09-24T14:08:27;99524.97;;;17.21;74.03
55540;BME280;41384;51.418;7.286;2022-09-24T14:11:17;99529.97;;;17.08;74.11
55540;BME280;41384;51.418;7.286;2022-09-24T14:13:43;99534.34;;;16.91;75.38
55540;BME280;41384;51.418;7.286;2022-09-24T14:16:16;99532.84;;;17.01;75.87
55540;BME280;41384;51.418;7.286;2022-09-24T14:18:43;99531.81;;;17.07;74.90
55540;BME280;41384;51.418;7.286;2022-09-24T14:21:18;99535.31;;;17.13;74.42
55540;BME280;41384;51.418;7.286;2022-09-24T14:23:57;99532.41;;;16.82;76.20
55540;BME280;41384;51.418;7.286;2022-09-24T14:26:29;99528.97;;;16.86;75.86
55540;BME280;41384;51.418;7.286;2022-09-24T14:28:57;99532.50;;;16.92;75.79
55540;BME280;41384;51.418;7.286;2022-09-24T14:31:24;99537.47;;;16.83;78.49
55540;BME280;41384;51.418;7.286;2022-09-24T14:33:49;99532.47;;;16.87;79.31
55540;BME280;41384;51.418;7.286;2022-09-24T14:36:15;99530.09;;;16.96;77.84
55540;BME280;41384;51.418;7.286;2022-09-24T14:38:56;99525.06;;;16.61;81.37
55540;BME280;41384;51.418;7.286;2022-09-24T14:41:33;99537.44;;;16.78;81.37